createdAt,value
2022-08-03T00:00:38.747Z,100453.41
2022-08-03T00:03:07.070Z,100450.04
2022-08-03T00:05:35.365Z,100447.92
2022-08-03T00:08:04.487Z,100450.93
2022-08-03T00:10:32.832Z,100453.77
2022-08-03T00:13:01.176Z,100454.85
2022-08-03T00:15:29.833Z,100455.92
2022-08-03T00:17:58.192Z,100454.48
2022-08-03T00:20:26.920Z,100455.81
2022-08-03T00:22:55.613Z,100454.33
2022-08-03T00:25:23.919Z,100455.34
2022-08-03T00:27:52.589Z,100454.77
2022-08-03T00:30:21.046Z,100449.98
2022-08-03T00:32:49.612Z,100451.58
2022-08-03T00:35:35.102Z,100450.34
2022-08-03T00:38:06.415Z,100452.47
2022-08-03T00:40:35.265Z,100454.07
2022-08-03T00:43:07.544Z,100452.88
2022-08-03T00:45:44.819Z,100449.55
2022-08-03T00:48:19.759Z,100445.65
2022-08-03T00:51:01.880Z,100450.27
2022-08-03T00:53:30.891Z,100447.96
2022-08-03T00:55:59.669Z,100447.52
2022-08-03T00:58:28.366Z,100449.45
2022-08-03T01:00:56.806Z,100446.23
2022-08-03T01:03:25.057Z,100449.41
2022-08-03T01:06:04.743Z,100445.68
2022-08-03T01:08:54.852Z,100450.98
2022-08-03T01:11:29.481Z,100456.88
2022-08-03T01:14:19.299Z,100453.02
2022-08-03T01:16:55.307Z,100445.80
2022-08-03T01:20:05.213Z,100444.58
2022-08-03T01:23:21.137Z,100432.34
2022-08-03T01:26:22.567Z,100433.39
2022-08-03T01:29:22.921Z,100433.16
2022-08-03T01:32:54.525Z,100432.77
2022-08-03T01:34:59.428Z,100425.67
2022-08-03T01:37:52.096Z,100428.31
2022-08-03T01:40:22.461Z,100428.13
2022-08-03T01:42:52.010Z,100426.36
2022-08-03T01:45:22.319Z,100426.73
2022-08-03T01:47:53.221Z,100423.39
2022-08-03T01:50:25.368Z,100420.75
2022-08-03T01:52:56.702Z,100417.59
2022-08-03T01:55:29.192Z,100417.27
2022-08-03T01:58:05.535Z,100411.05
2022-08-03T02:00:39.792Z,100407.65
2022-08-03T02:03:10.834Z,100407.27
2022-08-03T02:05:41.308Z,100405.65
2022-08-03T02:08:13.116Z,100403.17
2022-08-03T02:10:43.449Z,100405.65
2022-08-03T02:13:12.937Z,100408.35
2022-08-03T02:15:42.810Z,100407.72
2022-08-03T02:18:11.407Z,100405.32
2022-08-03T02:20:42.234Z,100407.95
2022-08-03T02:23:10.738Z,100404.30
2022-08-03T02:25:53.350Z,100403.10
2022-08-03T02:28:25.648Z,100402.02
2022-08-03T02:30:56.229Z,100402.38
2022-08-03T02:33:32.398Z,100397.93
2022-08-03T02:36:02.418Z,100399.17
2022-08-03T02:38:39.093Z,100398.86
2022-08-03T02:41:17.844Z,100396.46
2022-08-03T02:44:05.739Z,100395.64
2022-08-03T02:46:39.043Z,100398.42
2022-08-03T02:49:50.085Z,100397.10
2022-08-03T02:51:58.399Z,100397.89
2022-08-03T02:54:27.310Z,100396.60
2022-08-03T02:56:58.803Z,100396.43
2022-08-03T02:59:31.341Z,100404.73
2022-08-03T03:02:02.476Z,100405.30
2022-08-03T03:04:33.170Z,100405.11
2022-08-03T03:07:04.409Z,100409.02
2022-08-03T03:09:39.945Z,100408.88
2022-08-03T03:12:11.694Z,100407.88
2022-08-03T03:14:40.922Z,100406.55
2022-08-03T03:17:11.666Z,100404.32
2022-08-03T03:19:41.707Z,100403.66
2022-08-03T03:22:11.092Z,100403.02
2022-08-03T03:24:41.907Z,100408.70
2022-08-03T03:27:10.675Z,100409.23
2022-08-03T03:29:45.223Z,100407.64
2022-08-03T03:32:14.527Z,100410.66
2022-08-03T03:34:44.243Z,100407.98
2022-08-03T03:37:13.167Z,100407.69
2022-08-03T03:39:41.785Z,100403.44
2022-08-03T03:42:10.235Z,100407.35
2022-08-03T03:44:38.856Z,100411.63
2022-08-03T03:47:07.570Z,100411.91
2022-08-03T03:49:36.985Z,100412.95
2022-08-03T03:52:05.605Z,100407.55
2022-08-03T03:54:45.503Z,100415.34
2022-08-03T03:57:13.797Z,100421.88
2022-08-03T03:59:42.993Z,100419.27
2022-08-03T04:02:12.536Z,100416.96
2022-08-03T04:04:59.268Z,100418.37
2022-08-03T04:07:46.712Z,100423.84
2022-08-03T04:10:42.333Z,100424.34
2022-08-03T04:13:13.808Z,100426.05
2022-08-03T04:15:43.711Z,100421.35
2022-08-03T04:18:14.939Z,100420.38
2022-08-03T04:20:48.012Z,100423.23
2022-08-03T04:23:20.716Z,100424.56
2022-08-03T04:25:51.657Z,100424.64
2022-08-03T04:28:30.578Z,100424.86
2022-08-03T04:31:03.664Z,100422.46
2022-08-03T04:33:35.011Z,100424.30
2022-08-03T04:36:07.984Z,100422.27
2022-08-03T04:38:44.499Z,100423.02
2022-08-03T04:41:14.227Z,100424.66
2022-08-03T04:43:42.989Z,100428.25
2022-08-03T04:46:16.750Z,100427.69
2022-08-03T04:48:46.435Z,100429.10
2022-08-03T04:51:15.350Z,100432.79
2022-08-03T04:53:44.249Z,100436.92
2022-08-03T04:56:12.768Z,100434.65
2022-08-03T04:58:41.007Z,100439.29
2022-08-03T05:01:09.682Z,100439.17
2022-08-03T05:03:38.263Z,100439.58
2022-08-03T05:06:11.119Z,100440.69
2022-08-03T05:08:46.149Z,100437.55
2022-08-03T05:11:16.593Z,100439.38
2022-08-03T05:13:45.991Z,100433.31
2022-08-03T05:16:14.364Z,100437.75
2022-08-03T05:18:43.454Z,100440.02
2022-08-03T05:21:17.237Z,100434.81
2022-08-03T05:23:45.527Z,100435.21
2022-08-03T05:26:13.910Z,100435.52
2022-08-03T05:28:49.972Z,100434.75
2022-08-03T05:31:19.958Z,100439.01
2022-08-03T05:33:49.497Z,100441.41
2022-08-03T05:36:17.590Z,100441.67
2022-08-03T05:38:46.191Z,100445.61
2022-08-03T05:41:21.710Z,100444.00
2022-08-03T05:43:54.210Z,100443.84
2022-08-03T05:46:23.398Z,100450.17
2022-08-03T05:48:52.310Z,100446.80
2022-08-03T05:51:20.855Z,100451.48
2022-08-03T05:53:49.396Z,100452.95
2022-08-03T05:56:17.728Z,100451.44
2022-08-03T05:58:47.519Z,100452.86
2022-08-03T06:01:17.441Z,100456.41
2022-08-03T06:03:46.418Z,100454.67
2022-08-03T06:06:16.005Z,100462.77
2022-08-03T06:08:45.266Z,100454.29
2022-08-03T06:11:13.691Z,100459.02
2022-08-03T06:13:42.336Z,100455.45
2022-08-03T06:16:11.067Z,100452.75
2022-08-03T06:18:40.659Z,100455.90
2022-08-03T06:21:15.486Z,100453.15
2022-08-03T06:23:54.427Z,100454.33
2022-08-03T06:26:25.577Z,100453.95
2022-08-03T06:28:55.270Z,100454.67
2022-08-03T06:31:32.708Z,100454.96
2022-08-03T06:34:34.506Z,100456.80
2022-08-03T06:36:58.541Z,100460.44
2022-08-03T06:39:30.406Z,100461.16
2022-08-03T06:41:59.289Z,100462.60
2022-08-03T06:44:27.542Z,100460.95
2022-08-03T06:46:55.982Z,100462.09
2022-08-03T06:49:24.850Z,100466.64
2022-08-03T06:52:06.193Z,100468.56
2022-08-03T06:54:36.230Z,100466.93
2022-08-03T06:57:04.782Z,100466.08
2022-08-03T07:00:07.597Z,100466.48
2022-08-03T07:02:21.581Z,100464.98
2022-08-03T07:04:50.520Z,100459.14
2022-08-03T07:07:19.570Z,100459.73
2022-08-03T07:09:53.193Z,100457.52
2022-08-03T07:12:29.535Z,100460.52
2022-08-03T07:15:02.325Z,100457.04
2022-08-03T07:17:32.532Z,100458.14
2022-08-03T07:20:02.481Z,100458.59
2022-08-03T07:22:30.748Z,100460.14
2022-08-03T07:24:59.451Z,100459.38
2022-08-03T07:27:29.724Z,100459.38
2022-08-03T07:30:00.077Z,100459.44
2022-08-03T07:32:31.823Z,100461.29
2022-08-03T07:35:01.373Z,100463.04
2022-08-03T07:37:31.020Z,100459.60
2022-08-03T07:40:00.954Z,100458.98
2022-08-03T07:42:29.590Z,100459.56
2022-08-03T07:44:58.869Z,100460.34
2022-08-03T07:47:35.405Z,100460.36
2022-08-03T07:50:06.663Z,100462.45
2022-08-03T07:52:49.908Z,100464.14
2022-08-03T07:55:26.106Z,100462.16
2022-08-03T07:58:23.743Z,100462.69
2022-08-03T08:00:53.411Z,100460.04
2022-08-03T08:03:24.545Z,100460.33
2022-08-03T08:05:53.845Z,100458.02
2022-08-03T08:08:22.062Z,100457.14
2022-08-03T08:10:57.978Z,100460.49
2022-08-03T08:13:27.105Z,100459.83
2022-08-03T08:15:55.425Z,100459.65
2022-08-03T08:18:24.339Z,100464.04
2022-08-03T08:20:52.753Z,100463.35
2022-08-03T08:23:41.716Z,100460.55
2022-08-03T08:26:11.868Z,100457.04
2022-08-03T08:28:40.304Z,100455.02
2022-08-03T08:31:08.801Z,100449.17
2022-08-03T08:34:02.764Z,100452.29
2022-08-03T08:36:25.506Z,100447.30
2022-08-03T08:38:53.929Z,100449.09
2022-08-03T08:41:22.175Z,100453.95
2022-08-03T08:43:50.913Z,100453.47
2022-08-03T08:46:23.929Z,100456.70
2022-08-03T08:48:54.698Z,100461.20
2022-08-03T08:51:50.627Z,100456.54
2022-08-03T08:54:22.524Z,100461.52
2022-08-03T08:56:52.879Z,100459.20
2022-08-03T08:59:22.099Z,100461.08
2022-08-03T09:01:50.683Z,100456.83
2022-08-03T09:04:19.120Z,100459.23
2022-08-03T09:07:10.469Z,100458.84
2022-08-03T09:10:04.694Z,100460.91
2022-08-03T09:12:42.332Z,100463.70
2022-08-03T09:15:17.643Z,100462.59
2022-08-03T09:17:50.666Z,100464.64
2022-08-03T09:20:21.761Z,100462.11
2022-08-03T09:23:01.830Z,100460.70
2022-08-03T09:25:30.253Z,100458.23
2022-08-03T09:28:12.212Z,100460.06
2022-08-03T09:30:43.646Z,100459.13
2022-08-03T09:33:15.091Z,100460.14
2022-08-03T09:35:54.805Z,100456.28
2022-08-03T09:38:26.422Z,100457.77
2022-08-03T09:41:00.019Z,100459.13
2022-08-03T09:43:45.877Z,100458.89
2022-08-03T09:46:14.293Z,100457.35
2022-08-03T09:48:42.554Z,100453.12
2022-08-03T09:51:32.815Z,100450.14
2022-08-03T09:54:05.787Z,100446.05
2022-08-03T09:56:45.153Z,100452.92
2022-08-03T09:59:23.227Z,100449.16
2022-08-03T10:01:52.589Z,100445.79
2022-08-03T10:04:22.341Z,100448.06
2022-08-03T10:07:09.487Z,100442.75
2022-08-03T10:09:38.694Z,100446.15
2022-08-03T10:12:12.740Z,100447.01
2022-08-03T10:14:44.065Z,100443.88
2022-08-03T10:17:12.545Z,100446.65
2022-08-03T10:19:44.406Z,100443.27
2022-08-03T10:22:14.833Z,100444.98
2022-08-03T10:25:00.166Z,100437.69
2022-08-03T10:27:33.776Z,100439.13
2022-08-03T10:30:05.618Z,100437.39
2022-08-03T10:33:49.593Z,100438.60
2022-08-03T10:36:20.374Z,100429.38
2022-08-03T10:38:53.453Z,100428.43
2022-08-03T10:41:25.796Z,100429.81
2022-08-03T10:44:18.117Z,100426.84
2022-08-03T10:46:48.622Z,100428.45
2022-08-03T10:49:35.305Z,100423.36
2022-08-03T10:52:31.446Z,100422.17
2022-08-03T10:55:11.974Z,100420.79
2022-08-03T10:57:52.590Z,100421.52
2022-08-03T11:00:30.430Z,100420.63
2022-08-03T11:03:01.774Z,100416.88
2022-08-03T11:05:32.682Z,100421.83
2022-08-03T11:08:32.767Z,100420.84
2022-08-03T11:11:23.920Z,100415.25
2022-08-03T11:14:17.387Z,100407.52
2022-08-03T11:17:14.392Z,100407.61
2022-08-03T11:19:57.692Z,100408.85
2022-08-03T11:22:51.768Z,100404.30
2022-08-03T11:25:53.238Z,100401.63
2022-08-03T11:28:41.746Z,100405.01
2022-08-03T11:31:49.778Z,100406.88
2022-08-03T11:34:15.540Z,100403.64
2022-08-03T11:37:22.822Z,100408.99
2022-08-03T11:39:54.759Z,100405.27
2022-08-03T11:42:27.137Z,100403.18
2022-08-03T11:44:58.388Z,100398.66
2022-08-03T11:47:29.733Z,100394.30
2022-08-03T11:50:02.315Z,100390.30
2022-08-03T11:52:39.004Z,100390.69
2022-08-03T11:55:12.483Z,100388.64
2022-08-03T11:59:10.668Z,100386.38
2022-08-03T12:00:30.604Z,100386.96
2022-08-03T12:03:02.019Z,100388.07
2022-08-03T12:05:40.309Z,100383.31
2022-08-03T12:08:10.603Z,100385.92
2022-08-03T12:10:41.701Z,100379.96
2022-08-03T12:14:45.436Z,100377.98
2022-08-03T12:15:59.478Z,100376.73
2022-08-03T12:18:27.888Z,100380.55
2022-08-03T12:21:06.857Z,100377.04
2022-08-03T12:23:37.920Z,100381.64
2022-08-03T12:26:09.092Z,100375.27
2022-08-03T12:28:38.582Z,100377.88
2022-08-03T12:31:09.906Z,100377.30
2022-08-03T12:34:05.038Z,100378.05
2022-08-03T12:36:35.592Z,100376.27
2022-08-03T12:39:09.090Z,100376.20
2022-08-03T12:41:40.042Z,100369.77
2022-08-03T12:44:09.778Z,100370.98
2022-08-03T12:46:45.366Z,100368.71
2022-08-03T12:49:19.066Z,100367.33
2022-08-03T12:51:47.796Z,100360.72
2022-08-03T12:54:36.176Z,100365.55
2022-08-03T12:57:07.249Z,100362.59
2022-08-03T12:59:45.174Z,100357.23
2022-08-03T13:02:24.675Z,100356.76
2022-08-03T13:04:54.789Z,100357.64
2022-08-03T13:07:23.635Z,100355.73
2022-08-03T13:09:54.993Z,100352.94
2022-08-03T13:12:26.337Z,100345.90
2022-08-03T13:15:00.029Z,100341.33
2022-08-03T13:17:28.610Z,100339.77
2022-08-03T13:19:57.004Z,100347.54
2022-08-03T13:22:29.120Z,100342.42
2022-08-03T13:24:58.358Z,100343.10
2022-08-03T13:28:04.047Z,100339.42
2022-08-03T13:30:27.571Z,100337.29
2022-08-03T13:33:00.603Z,100337.77
2022-08-03T13:35:29.464Z,100339.92
2022-08-03T13:37:57.775Z,100341.92
2022-08-03T13:40:30.062Z,100334.54
2022-08-03T13:42:59.065Z,100329.74
2022-08-03T13:45:27.838Z,100325.48
2022-08-03T13:47:55.973Z,100325.05
2022-08-03T13:50:24.452Z,100322.25
2022-08-03T13:52:52.742Z,100324.23
2022-08-03T13:55:21.065Z,100324.40
2022-08-03T13:58:02.614Z,100325.19
2022-08-03T14:00:35.404Z,100318.80
2022-08-03T14:03:12.633Z,100318.34
2022-08-03T14:05:43.437Z,100318.52
2022-08-03T14:08:12.505Z,100312.61
2022-08-03T14:10:43.759Z,100309.55
2022-08-03T14:13:17.698Z,100306.01
2022-08-03T14:15:49.617Z,100307.34
2022-08-03T14:18:27.745Z,100307.73
2022-08-03T14:21:01.937Z,100301.30
2022-08-03T14:23:34.453Z,100304.78
2022-08-03T14:26:02.730Z,100303.29
2022-08-03T14:28:31.157Z,100300.65
2022-08-03T14:30:59.825Z,100298.96
2022-08-03T14:33:30.810Z,100303.60
2022-08-03T14:35:59.239Z,100302.41
2022-08-03T14:38:27.864Z,100297.02
2022-08-03T14:40:57.126Z,100296.91
2022-08-03T14:44:01.040Z,100292.46
2022-08-03T14:46:32.339Z,100291.86
2022-08-03T14:50:31.700Z,100289.70
2022-08-03T14:51:53.870Z,100290.04
2022-08-03T14:54:23.202Z,100288.27
2022-08-03T14:56:51.980Z,100286.16
2022-08-03T14:59:20.212Z,100285.14
2022-08-03T15:02:02.195Z,100285.00
2022-08-03T15:04:32.373Z,100285.09
2022-08-03T15:07:00.851Z,100282.52
2022-08-03T15:09:29.123Z,100281.30
2022-08-03T15:11:57.474Z,100283.73
2022-08-03T15:14:32.309Z,100279.71
2022-08-03T15:17:03.145Z,100277.05
2022-08-03T15:20:02.079Z,100279.73
2022-08-03T15:22:20.603Z,100277.44
2022-08-03T15:24:53.961Z,100274.05
2022-08-03T15:27:22.615Z,100269.46
2022-08-03T15:30:08.730Z,100268.79
2022-08-03T15:32:38.795Z,100270.30
2022-08-03T15:35:07.496Z,100269.63
2022-08-03T15:37:35.804Z,100267.48
2022-08-03T15:40:07.722Z,100269.73
2022-08-03T15:42:41.981Z,100270.21
2022-08-03T15:45:11.073Z,100269.33
2022-08-03T15:47:41.178Z,100267.41
2022-08-03T15:50:10.435Z,100265.66
2022-08-03T15:52:39.051Z,100267.55
2022-08-03T15:55:08.192Z,100274.45
2022-08-03T15:59:04.829Z,100272.41
2022-08-03T16:00:33.802Z,100266.95
2022-08-03T16:03:02.771Z,100268.48
2022-08-03T16:05:31.154Z,100266.52
2022-08-03T16:08:03.822Z,100266.61
2022-08-03T16:10:33.223Z,100266.41
2022-08-03T16:13:01.593Z,100268.26
2022-08-03T16:15:29.931Z,100264.32
2022-08-03T16:17:59.403Z,100260.26
2022-08-03T16:20:34.173Z,100261.21
2022-08-03T16:23:10.926Z,100256.89
2022-08-03T16:25:41.121Z,100257.39
2022-08-03T16:28:17.215Z,100257.69
2022-08-03T16:30:46.819Z,100256.16
2022-08-03T16:33:17.412Z,100255.77
2022-08-03T16:35:47.106Z,100256.95
2022-08-03T16:38:19.093Z,100255.78
2022-08-03T16:40:52.115Z,100257.20
2022-08-03T16:43:22.763Z,100250.23
2022-08-03T16:45:51.933Z,100251.05
2022-08-03T16:48:20.541Z,100250.33
2022-08-03T16:50:49.501Z,100252.35
2022-08-03T16:53:51.655Z,100252.86
2022-08-03T16:56:10.098Z,100249.02
2022-08-03T16:58:41.674Z,100252.85
2022-08-03T17:01:21.600Z,100251.73
2022-08-03T17:04:02.162Z,100247.98
2022-08-03T17:06:37.682Z,100250.63
2022-08-03T17:09:08.494Z,100254.88
2022-08-03T17:11:44.302Z,100259.48
2022-08-03T17:14:22.695Z,100252.84
2022-08-03T17:16:53.987Z,100258.59
2022-08-03T17:19:24.215Z,100255.20
2022-08-03T17:22:04.211Z,100259.91
2022-08-03T17:24:40.944Z,100263.77
2022-08-03T17:28:42.363Z,100262.96
2022-08-03T17:30:15.981Z,100262.52
2022-08-03T17:32:56.743Z,100263.12
2022-08-03T17:35:36.948Z,100270.41
2022-08-03T17:38:11.997Z,100265.65
2022-08-03T17:40:48.020Z,100270.18
2022-08-03T17:44:08.129Z,100270.73
2022-08-03T17:46:10.666Z,100272.73
2022-08-03T17:51:49.882Z,100268.77
2022-08-03T17:54:31.228Z,100273.06
2022-08-03T18:00:34.872Z,100275.73
2022-08-03T18:08:26.741Z,100280.14
2022-08-03T18:12:09.252Z,100278.14
2022-08-03T18:16:07.660Z,100280.40
2022-08-03T18:20:03.682Z,100275.39
2022-08-03T18:23:55.833Z,100276.46
2022-08-03T18:27:49.046Z,100278.25
2022-08-03T18:51:43.057Z,100290.17
2022-08-03T18:56:01.385Z,100295.34
2022-08-03T19:00:02.533Z,100295.13
2022-08-03T19:03:54.694Z,100304.71
2022-08-03T19:07:37.472Z,100303.44
2022-08-03T19:15:51.000Z,100300.54
2022-08-03T19:19:43.476Z,100299.03
2022-08-03T19:23:34.138Z,100299.50
2022-08-03T19:43:06.717Z,100292.34
2022-08-03T19:46:56.573Z,100289.52
2022-08-03T19:50:46.087Z,100290.05
2022-08-03T20:06:29.790Z,100293.30
2022-08-03T20:10:20.449Z,100290.58
2022-08-03T20:14:09.802Z,100295.05
2022-08-03T20:18:00.199Z,100296.85
2022-08-03T20:33:49.124Z,100298.55
2022-08-03T20:37:38.895Z,100300.34
2022-08-03T20:41:31.884Z,100301.64
2022-08-03T21:01:57.930Z,100299.70
2022-08-03T21:05:48.388Z,100300.41
2022-08-03T21:09:44.070Z,100305.86
2022-08-03T21:12:55.306Z,100268.40
2022-08-03T21:13:09.434Z,100289.86
2022-08-03T21:13:43.011Z,100303.04
2022-08-03T21:17:41.147Z,100301.83
2022-08-03T21:21:33.690Z,100304.66
2022-08-03T21:25:24.759Z,100302.26
2022-08-03T21:29:16.166Z,100303.30
2022-08-03T22:00:09.786Z,100296.10
2022-08-03T22:03:59.552Z,100294.92
2022-08-03T22:07:48.835Z,100296.89
2022-08-03T22:11:38.290Z,100300.65
2022-08-03T22:15:27.587Z,100304.83
2022-08-03T22:23:26.579Z,100307.52
2022-08-03T22:27:14.706Z,100311.42
2022-08-03T22:31:30.593Z,100313.27
2022-08-03T22:39:14.880Z,100313.54
2022-08-03T22:43:15.395Z,100318.31
2022-08-03T22:47:05.026Z,100317.23
2022-08-03T22:54:55.951Z,100320.38
2022-08-03T22:58:45.489Z,100322.21
2022-08-03T23:02:35.746Z,100320.45
2022-08-03T23:06:25.813Z,100323.64
2022-08-03T23:10:15.664Z,100321.35
2022-08-03T23:14:07.156Z,100323.30
2022-08-03T23:26:02.070Z,100326.61
2022-08-03T23:29:51.325Z,100323.80
2022-08-03T23:38:04.712Z,100322.15
2022-08-03T23:41:55.886Z,100327.92
2022-08-03T23:45:45.435Z,100326.75
2022-08-03T23:49:35.046Z,100323.67
2022-08-03T23:53:38.977Z,100327.14
